West Sacramento, California
Current Conditions -  °F | °C
As of 4:53 PM on Saturday 20 Dec 2014 (Local Time) from KSAC Reporting Station
Overcast Overcast  
Wind Chill: 57°   Ceiling: 6500
Heat Index: 57°   Visibility: 10mi
Dew Point: 53°   Wind: 5mph
Humidity: 87%   Direction: 150°SSE
Pressure: 30.21"   Gusts: NA
Location:  38.57°N, 121.55°W
Report Text: KSAC 210053Z AUTO 15004KT 10SM OVC065 14/12 A3021 RMK AO2 SLP231 T01390117 TSNO
Loading
Personal Weather Stations






























Interactive Weather Map New forecast layout! Learn more

10-Day Weather Forecast

Advertisements
Track Severe Weather on mobile